createdAt,value
2019-03-29T00:00:56.887Z,39.10
2019-03-29T00:03:25.066Z,43.13
2019-03-29T00:05:53.236Z,41.30
2019-03-29T00:08:21.381Z,38.53
2019-03-29T00:10:49.571Z,41.80
2019-03-29T00:13:17.699Z,41.97
2019-03-29T00:15:45.843Z,43.43
2019-03-29T00:18:14.452Z,40.77
2019-03-29T00:20:42.592Z,44.83
2019-03-29T00:23:15.309Z,38.87
2019-03-29T00:25:43.486Z,44.77
2019-03-29T00:28:11.640Z,50.97
2019-03-29T00:30:39.792Z,46.10
2019-03-29T00:33:08.205Z,42.23
2019-03-29T00:35:36.344Z,46.13
2019-03-29T00:38:04.488Z,37.67
2019-03-29T00:40:33.201Z,38.77
2019-03-29T00:43:01.405Z,45.37
2019-03-29T00:45:29.542Z,43.27
2019-03-29T00:47:57.709Z,44.20
2019-03-29T00:50:25.861Z,41.30
2019-03-29T00:52:54.934Z,47.67
2019-03-29T00:55:23.312Z,40.33
2019-03-29T00:57:51.455Z,42.40
2019-03-29T01:00:19.598Z,47.03
2019-03-29T01:02:47.816Z,49.73
2019-03-29T01:05:15.960Z,44.03
2019-03-29T01:07:45.822Z,37.93
2019-03-29T01:10:14.218Z,40.80
2019-03-29T01:12:42.362Z,36.13
2019-03-29T01:15:10.632Z,44.10
2019-03-29T01:17:38.821Z,41.57
2019-03-29T01:20:07.047Z,45.03
2019-03-29T01:22:35.274Z,36.80
2019-03-29T01:25:04.489Z,37.70
2019-03-29T01:27:32.639Z,45.40
2019-03-29T01:30:00.787Z,44.97
2019-03-29T01:32:29.001Z,44.73
2019-03-29T01:34:57.152Z,38.03
2019-03-29T01:37:25.364Z,40.77
2019-03-29T01:39:53.478Z,37.27
2019-03-29T01:42:21.626Z,44.90
2019-03-29T01:44:49.775Z,40.27
2019-03-29T01:47:17.941Z,42.17
2019-03-29T01:49:46.089Z,37.77
2019-03-29T01:52:14.249Z,35.17
2019-03-29T01:54:42.870Z,37.20
2019-03-29T01:57:11.025Z,37.93
2019-03-29T01:59:39.172Z,38.80
2019-03-29T02:02:07.398Z,37.90
2019-03-29T02:04:35.537Z,42.63
2019-03-29T02:07:03.697Z,47.50
2019-03-29T02:09:31.873Z,44.40
2019-03-29T02:12:00.025Z,40.27
2019-03-29T02:14:28.189Z,39.90
2019-03-29T02:16:56.382Z,41.93
2019-03-29T02:19:24.552Z,35.93
2019-03-29T02:21:52.686Z,43.90
2019-03-29T02:24:21.269Z,43.13
2019-03-29T02:26:49.414Z,37.43
2019-03-29T02:29:17.713Z,37.43
2019-03-29T02:31:45.895Z,37.80
2019-03-29T02:34:15.712Z,35.93
2019-03-29T02:36:43.844Z,42.67
2019-03-29T02:39:12.023Z,40.93
2019-03-29T02:41:40.238Z,36.90
2019-03-29T02:44:08.439Z,38.60
2019-03-29T02:46:36.611Z,37.90
2019-03-29T02:49:04.755Z,40.03
2019-03-29T02:51:33.172Z,34.73
2019-03-29T02:54:01.512Z,41.13
2019-03-29T02:56:29.863Z,36.23
2019-03-29T02:58:58.003Z,37.77
2019-03-29T03:01:26.190Z,32.77
2019-03-29T03:03:54.338Z,35.77
2019-03-29T03:06:22.557Z,39.57
2019-03-29T03:08:50.669Z,36.60
2019-03-29T03:11:18.809Z,42.50
2019-03-29T03:13:46.984Z,35.53
2019-03-29T03:16:15.164Z,38.00
2019-03-29T03:19:02.750Z,34.37
2019-03-29T03:21:31.778Z,40.17
2019-03-29T03:23:59.936Z,38.03
2019-03-29T03:26:28.081Z,39.13
2019-03-29T03:28:56.263Z,38.10
2019-03-29T03:31:24.412Z,41.83
2019-03-29T03:33:52.557Z,40.37
2019-03-29T03:36:20.743Z,39.00
2019-03-29T03:38:49.238Z,38.77
2019-03-29T03:41:18.849Z,39.13
2019-03-29T03:43:48.810Z,39.27
2019-03-29T03:46:16.968Z,41.43
2019-03-29T03:48:47.658Z,37.63
2019-03-29T03:51:15.855Z,42.83
2019-03-29T03:53:44.004Z,39.43
2019-03-29T03:56:12.145Z,45.93
2019-03-29T03:58:40.495Z,39.70
2019-03-29T04:01:08.643Z,39.37
2019-03-29T04:03:36.801Z,38.97
2019-03-29T04:06:04.988Z,42.70
2019-03-29T04:08:33.147Z,42.27
2019-03-29T04:11:01.294Z,37.40
2019-03-29T04:13:29.588Z,40.23
2019-03-29T04:15:57.705Z,36.37
2019-03-29T04:18:26.785Z,40.03
2019-03-29T04:20:54.977Z,37.33
2019-03-29T04:23:23.408Z,37.87
2019-03-29T04:25:51.576Z,42.87
2019-03-29T04:28:19.890Z,40.53
2019-03-29T04:30:48.554Z,38.53
2019-03-29T04:33:16.698Z,37.13
2019-03-29T04:35:44.881Z,38.03
2019-03-29T04:38:13.054Z,41.17
2019-03-29T04:40:41.202Z,38.30
2019-03-29T04:43:09.375Z,38.80
2019-03-29T04:45:37.518Z,40.20
2019-03-29T04:48:05.950Z,37.53
2019-03-29T04:50:34.125Z,38.50
2019-03-29T04:53:02.272Z,36.43
2019-03-29T04:55:30.417Z,36.70
2019-03-29T04:57:58.589Z,43.83
2019-03-29T05:00:26.735Z,37.33
2019-03-29T05:02:54.884Z,35.83
2019-03-29T05:05:23.063Z,36.10
2019-03-29T05:07:51.461Z,37.43
2019-03-29T05:10:21.514Z,39.73
2019-03-29T05:12:51.517Z,38.73
2019-03-29T05:15:21.125Z,34.17
2019-03-29T05:17:52.057Z,39.33
2019-03-29T05:20:20.249Z,36.13
2019-03-29T05:22:49.009Z,32.40
2019-03-29T05:25:18.438Z,35.43
2019-03-29T05:27:46.622Z,36.97
2019-03-29T05:30:14.838Z,35.07
2019-03-29T05:32:43.226Z,33.40
2019-03-29T05:35:11.550Z,34.80
2019-03-29T05:37:39.710Z,33.27
2019-03-29T05:40:08.157Z,34.60
2019-03-29T05:42:36.682Z,36.70
2019-03-29T05:45:06.406Z,34.90
2019-03-29T05:47:34.555Z,35.27
2019-03-29T05:50:03.309Z,37.10
2019-03-29T05:52:31.461Z,36.67
2019-03-29T05:54:59.631Z,36.53
2019-03-29T05:57:27.801Z,33.90
2019-03-29T05:59:55.945Z,32.60
2019-03-29T06:02:24.097Z,32.37
2019-03-29T06:04:52.525Z,35.67
2019-03-29T06:07:20.638Z,34.37
2019-03-29T06:09:48.846Z,33.83
2019-03-29T06:12:17.034Z,36.27
2019-03-29T06:14:45.169Z,32.30
2019-03-29T06:17:13.410Z,33.67
2019-03-29T06:19:41.736Z,33.83
2019-03-29T06:22:09.861Z,32.03
2019-03-29T06:24:38.021Z,28.23
2019-03-29T06:27:06.185Z,33.23
2019-03-29T06:29:34.325Z,38.27
2019-03-29T06:32:02.481Z,32.93
2019-03-29T06:34:30.656Z,32.13
2019-03-29T06:36:58.797Z,30.80
2019-03-29T06:39:26.954Z,40.80
2019-03-29T06:41:55.122Z,30.07
2019-03-29T06:44:23.274Z,32.30
2019-03-29T06:46:51.417Z,31.50
2019-03-29T06:49:19.606Z,34.27
2019-03-29T06:51:47.760Z,31.77
2019-03-29T06:54:15.901Z,33.77
2019-03-29T06:56:44.075Z,35.53
2019-03-29T06:59:12.231Z,21.90
2019-03-29T07:01:40.370Z,31.17
2019-03-29T07:04:08.545Z,27.33
2019-03-29T07:06:36.820Z,26.70
2019-03-29T07:09:05.638Z,37.17
2019-03-29T07:11:33.817Z,31.13
2019-03-29T07:14:01.974Z,30.70
2019-03-29T07:16:30.109Z,43.43
2019-03-29T07:18:58.297Z,37.47
2019-03-29T07:21:26.485Z,47.03
2019-03-29T07:23:54.630Z,38.80
2019-03-29T07:26:22.871Z,44.27
2019-03-29T07:28:51.012Z,51.10
2019-03-29T07:31:19.222Z,47.60
2019-03-29T07:33:47.431Z,47.40
2019-03-29T07:36:15.565Z,44.10
2019-03-29T07:41:31.141Z,56.40
2019-03-29T07:43:48.349Z,60.03
2019-03-29T07:46:16.645Z,53.27
2019-03-29T07:48:44.837Z,58.80
2019-03-29T07:51:12.991Z,69.00
2019-03-29T07:53:44.556Z,65.53
2019-03-29T07:56:11.009Z,66.10
2019-03-29T07:58:39.190Z,66.00
2019-03-29T08:01:08.302Z,73.20
2019-03-29T08:03:36.854Z,66.17
2019-03-29T08:06:04.997Z,67.10
2019-03-29T08:08:34.396Z,64.13
2019-03-29T08:11:02.966Z,66.77
2019-03-29T08:13:31.593Z,66.50
2019-03-29T08:15:59.696Z,70.30
2019-03-29T08:18:28.146Z,65.40
2019-03-29T08:20:56.615Z,64.97
2019-03-29T08:23:30.512Z,65.27
2019-03-29T08:26:00.325Z,65.30
2019-03-29T08:28:32.159Z,67.87
2019-03-29T08:31:00.305Z,63.57
2019-03-29T08:33:29.178Z,66.87
2019-03-29T08:35:58.959Z,62.40
2019-03-29T08:38:29.820Z,71.93
2019-03-29T08:40:58.213Z,68.43
2019-03-29T08:43:26.386Z,72.00
2019-03-29T08:45:57.438Z,68.53
2019-03-29T08:48:24.494Z,67.47
2019-03-29T08:50:52.642Z,61.83
2019-03-29T08:53:20.815Z,73.23
2019-03-29T08:55:50.283Z,75.03
2019-03-29T08:58:18.428Z,71.57
2019-03-29T09:00:46.636Z,68.97
2019-03-29T09:03:14.781Z,76.67
2019-03-29T09:05:43.179Z,79.63
2019-03-29T09:08:11.569Z,71.57
2019-03-29T09:10:40.694Z,75.63
2019-03-29T09:13:08.943Z,72.47
2019-03-29T09:15:38.274Z,80.87
2019-03-29T09:18:06.446Z,93.50
2019-03-29T09:20:34.937Z,92.20
2019-03-29T09:23:03.365Z,92.83
2019-03-29T09:25:31.551Z,92.60
2019-03-29T09:27:59.700Z,87.13
2019-03-29T09:30:27.864Z,76.80
2019-03-29T09:32:56.049Z,87.50
2019-03-29T09:35:24.199Z,92.23
2019-03-29T09:37:52.371Z,87.30
2019-03-29T09:40:20.543Z,87.77
2019-03-29T09:42:52.169Z,87.97
2019-03-29T09:45:22.465Z,84.77
2019-03-29T09:47:50.995Z,91.77
2019-03-29T09:50:22.481Z,90.40
2019-03-29T09:52:51.416Z,86.97
2019-03-29T09:55:19.269Z,92.17
2019-03-29T09:57:47.741Z,91.67
2019-03-29T10:00:21.117Z,83.07
2019-03-29T10:02:45.799Z,80.50
2019-03-29T10:05:13.973Z,87.27
2019-03-29T10:07:42.129Z,86.03
2019-03-29T10:10:10.297Z,82.03
2019-03-29T10:12:43.935Z,81.80
2019-03-29T10:15:08.261Z,86.20
2019-03-29T10:17:36.459Z,82.47
2019-03-29T10:20:07.311Z,86.33
2019-03-29T10:22:35.468Z,80.63
2019-03-29T10:25:18.507Z,81.10
2019-03-29T10:27:34.815Z,76.30
2019-03-29T10:30:03.941Z,84.63
2019-03-29T10:32:32.462Z,83.53
2019-03-29T10:35:00.976Z,75.93
2019-03-29T10:37:29.738Z,78.17
2019-03-29T10:39:57.922Z,74.17
2019-03-29T10:42:34.423Z,73.20
2019-03-29T10:45:00.766Z,71.37
2019-03-29T10:47:43.278Z,74.87
2019-03-29T10:50:01.645Z,80.30
2019-03-29T10:52:33.006Z,68.33
2019-03-29T10:55:01.191Z,71.63
2019-03-29T10:57:29.329Z,75.07
2019-03-29T10:59:57.484Z,75.10
2019-03-29T11:02:25.980Z,74.37
2019-03-29T11:04:54.142Z,73.87
2019-03-29T11:07:22.637Z,71.63
2019-03-29T11:09:50.814Z,65.17
2019-03-29T11:12:18.965Z,73.30
2019-03-29T11:14:47.156Z,77.93
2019-03-29T11:17:15.403Z,75.83
2019-03-29T11:19:43.623Z,70.70
2019-03-29T11:22:11.769Z,62.60
2019-03-29T11:24:39.967Z,61.90
2019-03-29T11:27:08.378Z,63.53
2019-03-29T11:29:36.530Z,60.67
2019-03-29T11:32:04.774Z,66.60
2019-03-29T11:34:32.932Z,65.27
2019-03-29T11:37:01.088Z,66.70
2019-03-29T11:39:29.279Z,64.47
2019-03-29T11:41:57.442Z,65.70
2019-03-29T11:44:25.843Z,70.30
2019-03-29T11:46:54.018Z,64.70
2019-03-29T11:49:22.212Z,75.77
2019-03-29T11:51:50.373Z,68.10
2019-03-29T11:54:18.566Z,68.37
2019-03-29T11:56:47.832Z,66.87
2019-03-29T11:59:16.234Z,69.57
2019-03-29T12:01:44.417Z,76.70
2019-03-29T12:04:14.766Z,69.00
2019-03-29T12:06:42.867Z,70.40
2019-03-29T12:09:12.001Z,75.60
2019-03-29T12:11:40.153Z,73.10
2019-03-29T12:14:08.309Z,67.57
2019-03-29T12:16:36.506Z,62.47
2019-03-29T12:19:04.665Z,69.60
2019-03-29T12:21:32.813Z,65.20
2019-03-29T12:24:00.983Z,64.43
2019-03-29T12:26:29.166Z,63.50
2019-03-29T12:28:57.311Z,59.00
2019-03-29T12:31:25.497Z,63.57
2019-03-29T12:33:53.665Z,62.97
2019-03-29T12:36:21.810Z,68.27
2019-03-29T12:38:49.998Z,63.53
2019-03-29T12:41:18.144Z,63.20
2019-03-29T12:43:55.481Z,62.10
2019-03-29T12:46:16.114Z,62.07
2019-03-29T12:48:44.265Z,61.87
2019-03-29T12:51:12.462Z,61.73
2019-03-29T12:53:40.606Z,66.07
2019-03-29T12:56:08.746Z,57.73
2019-03-29T12:58:36.893Z,60.47
2019-03-29T13:01:05.107Z,59.57
2019-03-29T13:03:33.397Z,58.87
2019-03-29T13:06:03.578Z,60.67
2019-03-29T13:08:31.754Z,54.97
2019-03-29T13:11:00.365Z,57.63
2019-03-29T13:13:28.587Z,58.13
2019-03-29T13:15:57.111Z,56.40
2019-03-29T13:18:25.253Z,59.40
2019-03-29T13:20:53.397Z,57.80
2019-03-29T13:23:21.578Z,59.20
2019-03-29T13:25:49.812Z,61.37
2019-03-29T13:28:18.133Z,56.97
2019-03-29T13:30:46.301Z,59.07
2019-03-29T13:33:14.454Z,57.17
2019-03-29T13:35:44.550Z,60.47
2019-03-29T13:38:12.429Z,55.07
2019-03-29T13:40:40.576Z,54.13
2019-03-29T13:43:08.731Z,64.47
2019-03-29T13:45:36.905Z,59.50
2019-03-29T13:48:05.049Z,59.00
2019-03-29T13:50:33.196Z,56.80
2019-03-29T13:53:01.373Z,63.10
2019-03-29T13:55:29.517Z,58.37
2019-03-29T13:57:57.681Z,55.73
2019-03-29T14:00:25.925Z,61.43
2019-03-29T14:02:54.062Z,62.70
2019-03-29T14:05:22.224Z,55.70
2019-03-29T14:07:50.413Z,58.10
2019-03-29T14:10:18.950Z,56.97
2019-03-29T14:12:47.097Z,62.20
2019-03-29T14:15:15.290Z,58.63
2019-03-29T14:17:43.431Z,57.87
2019-03-29T14:20:11.580Z,60.93
2019-03-29T14:22:39.878Z,66.17
2019-03-29T14:25:08.013Z,63.90
2019-03-29T14:27:36.159Z,63.83
2019-03-29T14:30:05.978Z,56.97
2019-03-29T14:32:34.109Z,62.53
2019-03-29T14:35:02.326Z,74.67
2019-03-29T14:37:30.500Z,75.80
2019-03-29T14:39:58.647Z,78.10
2019-03-29T14:42:26.798Z,79.90
2019-03-29T14:44:54.986Z,72.40
2019-03-29T14:47:38.114Z,79.33
2019-03-29T14:49:54.509Z,77.50
2019-03-29T14:52:23.894Z,71.10
2019-03-29T14:54:52.081Z,75.25
2019-03-29T14:57:20.223Z,71.30
2019-03-29T14:59:48.451Z,72.20
2019-03-29T15:02:16.584Z,71.37
2019-03-29T15:04:44.725Z,73.93
2019-03-29T15:07:12.917Z,73.93
2019-03-29T15:09:41.165Z,73.87
2019-03-29T15:12:17.003Z,70.67
2019-03-29T15:14:49.312Z,75.43
2019-03-29T15:17:17.490Z,73.33
2019-03-29T15:19:45.704Z,70.00
2019-03-29T15:22:13.963Z,64.27
2019-03-29T15:24:42.100Z,73.97
2019-03-29T15:27:10.250Z,71.93
2019-03-29T15:29:38.442Z,64.70
2019-03-29T15:32:06.593Z,70.33
2019-03-29T15:34:34.733Z,71.00
2019-03-29T15:37:02.945Z,72.37
2019-03-29T15:39:31.100Z,68.40
2019-03-29T15:41:59.260Z,66.07
2019-03-29T15:44:27.436Z,66.10
2019-03-29T15:46:55.577Z,65.37
2019-03-29T15:49:25.050Z,68.60
2019-03-29T15:51:59.392Z,68.13
2019-03-29T15:54:40.747Z,59.90
2019-03-29T15:57:08.979Z,58.53
2019-03-29T15:59:39.262Z,62.80
2019-03-29T16:02:18.186Z,57.57
2019-03-29T16:04:48.237Z,61.27
2019-03-29T16:07:17.300Z,68.27
2019-03-29T16:09:45.462Z,68.37
2019-03-29T16:12:17.587Z,57.63
2019-03-29T16:14:50.628Z,54.63
2019-03-29T16:17:18.862Z,56.70
2019-03-29T16:19:47.151Z,58.53
2019-03-29T16:22:15.301Z,52.77
2019-03-29T16:24:43.473Z,50.87
2019-03-29T16:27:11.646Z,51.83
2019-03-29T16:29:39.791Z,52.87
2019-03-29T16:32:07.977Z,52.87
2019-03-29T16:34:36.140Z,58.03
2019-03-29T16:37:04.285Z,55.87
2019-03-29T16:39:32.473Z,53.67
2019-03-29T16:42:00.621Z,50.07
2019-03-29T16:44:28.787Z,48.30
2019-03-29T16:46:57.042Z,60.28
2019-03-29T16:49:25.208Z,52.17
2019-03-29T16:51:53.357Z,53.83
2019-03-29T16:54:21.551Z,53.47
2019-03-29T16:56:49.696Z,51.47
2019-03-29T16:59:17.845Z,50.37
2019-03-29T17:01:46.032Z,51.70
2019-03-29T17:04:14.189Z,51.03
2019-03-29T17:06:42.342Z,51.20
2019-03-29T17:09:10.521Z,51.50
2019-03-29T17:11:38.677Z,61.37
2019-03-29T17:14:06.835Z,52.97
2019-03-29T17:16:35.045Z,48.33
2019-03-29T17:19:03.182Z,46.60
2019-03-29T17:21:31.364Z,50.10
2019-03-29T17:23:59.546Z,48.93
2019-03-29T17:26:27.702Z,46.47
2019-03-29T17:28:56.263Z,48.63
2019-03-29T17:31:24.457Z,42.50
2019-03-29T17:33:52.611Z,48.30
2019-03-29T17:36:20.753Z,48.57
2019-03-29T17:38:48.942Z,43.10
2019-03-29T17:41:17.086Z,44.87
2019-03-29T17:43:45.233Z,49.97
2019-03-29T17:46:16.694Z,49.73
2019-03-29T17:48:43.222Z,44.27
2019-03-29T17:51:11.390Z,44.87
2019-03-29T17:53:39.574Z,53.30
2019-03-29T17:56:07.721Z,49.17
2019-03-29T17:58:35.871Z,51.30
2019-03-29T18:01:04.058Z,47.17
2019-03-29T18:03:32.201Z,52.63
2019-03-29T18:06:00.345Z,46.43
2019-03-29T18:08:28.526Z,52.30
2019-03-29T18:10:56.689Z,46.67
2019-03-29T18:13:24.975Z,44.33
2019-03-29T18:15:53.152Z,47.80
2019-03-29T18:18:21.315Z,42.83
2019-03-29T18:20:49.466Z,48.78
2019-03-29T18:23:17.666Z,45.67
2019-03-29T18:25:45.815Z,46.73
2019-03-29T18:28:13.966Z,48.00
2019-03-29T18:30:42.538Z,44.73
2019-03-29T18:33:10.744Z,44.37
2019-03-29T18:35:38.872Z,47.57
2019-03-29T18:38:07.033Z,42.07
2019-03-29T18:40:35.191Z,47.00
2019-03-29T18:43:03.619Z,44.97
2019-03-29T18:45:31.811Z,48.43
2019-03-29T18:48:00.236Z,46.13
2019-03-29T18:50:28.385Z,48.07
2019-03-29T18:52:56.578Z,42.10
2019-03-29T18:55:24.741Z,48.10
2019-03-29T18:57:52.894Z,47.93
2019-03-29T19:00:29.085Z,49.37
2019-03-29T19:02:57.305Z,50.07
2019-03-29T19:05:26.127Z,50.27
2019-03-29T19:07:54.370Z,45.37
2019-03-29T19:10:22.522Z,50.20
2019-03-29T19:12:50.682Z,44.60
2019-03-29T19:15:18.857Z,47.47
2019-03-29T19:17:47.059Z,46.27
2019-03-29T19:20:26.712Z,46.40
2019-03-29T19:22:45.043Z,47.07
2019-03-29T19:25:13.206Z,52.37
2019-03-29T19:27:42.850Z,50.13
2019-03-29T19:30:11.025Z,50.77
2019-03-29T19:32:40.239Z,46.23
2019-03-29T19:35:08.379Z,47.67
2019-03-29T19:37:36.561Z,47.97
2019-03-29T19:40:05.927Z,45.67
2019-03-29T19:42:34.077Z,44.60
2019-03-29T19:45:02.259Z,45.23
2019-03-29T19:47:30.413Z,44.17
2019-03-29T19:49:58.570Z,47.10
2019-03-29T19:52:26.751Z,42.63
2019-03-29T19:54:54.916Z,39.63
2019-03-29T19:57:23.114Z,40.93
2019-03-29T19:59:51.340Z,46.17
2019-03-29T20:02:19.508Z,51.33
2019-03-29T20:04:47.625Z,40.13
2019-03-29T20:07:15.809Z,44.63
2019-03-29T20:09:43.957Z,50.00
2019-03-29T20:12:12.149Z,42.50
2019-03-29T20:14:40.328Z,42.47
2019-03-29T20:17:08.574Z,42.07
2019-03-29T20:19:36.738Z,48.63
2019-03-29T20:22:04.935Z,39.37
2019-03-29T20:24:33.078Z,44.33
2019-03-29T20:27:01.235Z,42.70
2019-03-29T20:29:29.411Z,40.73
2019-03-29T20:31:57.574Z,42.87
2019-03-29T20:34:25.743Z,51.37
2019-03-29T20:36:53.922Z,39.43
2019-03-29T20:39:22.085Z,47.47
2019-03-29T20:41:50.233Z,44.87
2019-03-29T20:44:18.405Z,46.20
2019-03-29T20:46:46.566Z,48.27
2019-03-29T20:49:14.716Z,46.23
2019-03-29T20:51:42.901Z,48.73
2019-03-29T20:54:11.063Z,49.63
2019-03-29T20:56:39.247Z,54.67
2019-03-29T20:59:07.891Z,48.87
2019-03-29T21:01:36.038Z,53.57
2019-03-29T21:04:04.261Z,56.90
2019-03-29T21:06:32.478Z,55.87
2019-03-29T21:11:51.470Z,59.27
2019-03-29T21:14:19.841Z,57.33
2019-03-29T21:16:47.998Z,53.87
2019-03-29T21:19:16.430Z,61.87
2019-03-29T21:21:45.049Z,61.23
2019-03-29T21:24:13.207Z,58.47
2019-03-29T21:26:41.381Z,64.47
2019-03-29T21:29:09.528Z,61.80
2019-03-29T21:31:37.683Z,59.47
2019-03-29T21:34:05.856Z,62.30
2019-03-29T21:36:38.014Z,62.97
2019-03-29T21:39:16.680Z,69.03
2019-03-29T21:41:45.177Z,71.47
2019-03-29T21:44:13.397Z,63.83
2019-03-29T21:46:41.622Z,70.63
2019-03-29T21:49:09.783Z,63.13
2019-03-29T21:51:37.937Z,62.67
2019-03-29T21:54:06.108Z,71.13
2019-03-29T21:56:34.265Z,77.33
2019-03-29T21:59:02.415Z,74.50
2019-03-29T22:01:30.589Z,74.37
2019-03-29T22:03:58.741Z,74.70
2019-03-29T22:06:26.879Z,76.93
2019-03-29T22:08:55.086Z,73.10
2019-03-29T22:11:23.228Z,74.00
2019-03-29T22:13:51.744Z,75.77
2019-03-29T22:16:19.935Z,71.20
2019-03-29T22:18:48.077Z,74.73
2019-03-29T22:21:16.233Z,73.03
2019-03-29T22:23:44.414Z,78.57
2019-03-29T22:26:12.558Z,80.05
2019-03-29T22:28:40.715Z,75.40
2019-03-29T22:31:08.892Z,77.73
2019-03-29T22:33:37.078Z,79.47
2019-03-29T22:36:05.245Z,77.63
2019-03-29T22:38:33.426Z,76.90
2019-03-29T22:41:01.950Z,78.63
2019-03-29T22:43:30.104Z,77.20
2019-03-29T22:45:58.282Z,81.80
2019-03-29T22:48:26.522Z,78.97
2019-03-29T22:50:54.666Z,78.83
2019-03-29T22:53:22.979Z,77.20
2019-03-29T22:55:51.211Z,83.30
2019-03-29T22:58:19.313Z,81.60
2019-03-29T23:00:49.906Z,81.50
2019-03-29T23:03:18.267Z,81.13
2019-03-29T23:05:46.407Z,84.13
2019-03-29T23:08:15.020Z,77.80
2019-03-29T23:10:43.206Z,77.27
2019-03-29T23:13:11.366Z,79.23
2019-03-29T23:15:40.847Z,82.03
2019-03-29T23:18:09.903Z,80.27
2019-03-29T23:20:38.021Z,86.37
2019-03-29T23:23:06.193Z,79.47
2019-03-29T23:25:34.517Z,81.33
2019-03-29T23:28:02.662Z,78.27
2019-03-29T23:30:30.838Z,81.77
2019-03-29T23:33:00.298Z,82.63
2019-03-29T23:35:28.438Z,84.23
2019-03-29T23:37:56.618Z,79.33
2019-03-29T23:40:24.774Z,88.37
2019-03-29T23:42:52.927Z,81.63
2019-03-29T23:45:21.101Z,94.93
2019-03-29T23:47:50.076Z,89.50
2019-03-29T23:50:18.284Z,90.30
2019-03-29T23:52:46.422Z,86.53
2019-03-29T23:55:14.576Z,84.23
2019-03-29T23:57:44.117Z,87.00
